sensor_id;sensor_type;location;lat;lon;timestamp;pressure;altitude;pressure_sealevel;temperature;humidity
5062;BME280;2351;50.812;12.872;2022-09-13T00:02:18;97635.69;;;10.84;89.99
5062;BME280;2351;50.812;12.872;2022-09-13T00:04:50;97638.31;;;10.84;90.13
5062;BME280;2351;50.812;12.872;2022-09-13T00:07:21;97641.94;;;10.83;90.22
5062;BME280;2351;50.812;12.872;2022-09-13T00:09:53;97641.94;;;10.83;90.36
5062;BME280;2351;50.812;12.872;2022-09-13T00:12:25;97633.16;;;10.83;90.39
5062;BME280;2351;50.812;12.872;2022-09-13T00:14:57;97638.44;;;10.83;90.34
5062;BME280;2351;50.812;12.872;2022-09-13T00:17:29;97628.00;;;10.81;90.68
5062;BME280;2351;50.812;12.872;2022-09-13T00:20:01;97622.88;;;10.80;90.57
5062;BME280;2351;50.812;12.872;2022-09-13T00:22:33;97615.06;;;10.78;90.65
5062;BME280;2351;50.812;12.872;2022-09-13T00:25:05;97610.75;;;10.77;90.75
5062;BME280;2351;50.812;12.872;2022-09-13T00:27:37;97606.41;;;10.76;90.86
5062;BME280;2351;50.812;12.872;2022-09-13T00:30:11;97605.72;;;10.74;90.82
5062;BME280;2351;50.812;12.872;2022-09-13T00:32:43;97605.88;;;10.73;90.93
5062;BME280;2351;50.812;12.872;2022-09-13T00:35:15;97597.53;;;10.67;91.05
5062;BME280;2351;50.812;12.872;2022-09-13T00:37:46;97602.00;;;10.67;90.90
5062;BME280;2351;50.812;12.872;2022-09-13T00:40:19;97602.97;;;10.66;91.27
5062;BME280;2351;50.812;12.872;2022-09-13T00:42:51;97598.50;;;10.66;91.38
5062;BME280;2351;50.812;12.872;2022-09-13T00:45:23;97595.03;;;10.66;91.33
5062;BME280;2351;50.812;12.872;2022-09-13T00:47:58;97594.19;;;10.65;91.58
5062;BME280;2351;50.812;12.872;2022-09-13T00:50:34;97595.31;;;10.63;91.46
5062;BME280;2351;50.812;12.872;2022-09-13T00:53:10;97584.84;;;10.61;91.66
5062;BME280;2351;50.812;12.872;2022-09-13T00:55:46;97586.66;;;10.61;91.45
5062;BME280;2351;50.812;12.872;2022-09-13T00:58:25;97581.53;;;10.59;91.33
5062;BME280;2351;50.812;12.872;2022-09-13T01:00:59;97573.72;;;10.58;91.86
5062;BME280;2351;50.812;12.872;2022-09-13T01:03:34;97574.69;;;10.57;91.88
5062;BME280;2351;50.812;12.872;2022-09-13T01:06:07;97580.97;;;10.55;91.93
5062;BME280;2351;50.812;12.872;2022-09-13T01:08:42;97581.94;;;10.54;92.03
5062;BME280;2351;50.812;12.872;2022-09-13T01:11:19;97577.50;;;10.55;92.13
5062;BME280;2351;50.812;12.872;2022-09-13T01:13:55;97572.31;;;10.53;92.34
5062;BME280;2351;50.812;12.872;2022-09-13T01:16:28;97568.69;;;10.54;92.34
5062;BME280;2351;50.812;12.872;2022-09-13T01:19:00;97574.16;;;10.53;92.13
5062;BME280;2351;50.812;12.872;2022-09-13T01:25:23;97572.31;;;10.53;92.17
5062;BME280;2351;50.812;12.872;2022-09-13T01:28:16;97572.47;;;10.52;92.47
5062;BME280;2351;50.812;12.872;2022-09-13T01:30:57;97572.59;;;10.50;92.32
5062;BME280;2351;50.812;12.872;2022-09-13T01:33:44;97566.50;;;10.50;92.52
5062;BME280;2351;50.812;12.872;2022-09-13T01:36:42;97566.59;;;10.48;92.61
5062;BME280;2351;50.812;12.872;2022-09-13T01:39:29;97566.75;;;10.47;92.62
5062;BME280;2351;50.812;12.872;2022-09-13T01:42:13;97560.66;;;10.46;92.80
5062;BME280;2351;50.812;12.872;2022-09-13T01:45:10;97559.09;;;10.44;92.91
5062;BME280;2351;50.812;12.872;2022-09-13T01:47:51;97552.41;;;10.39;92.90
5062;BME280;2351;50.812;12.872;2022-09-13T01:50:32;97551.84;;;10.36;92.97
5062;BME280;2351;50.812;12.872;2022-09-13T01:53:17;97543.22;;;10.34;93.21
5062;BME280;2351;50.812;12.872;2022-09-13T01:55:58;97548.50;;;10.34;93.27
5062;BME280;2351;50.812;12.872;2022-09-13T01:58:39;97545.16;;;10.32;93.10
5062;BME280;2351;50.812;12.872;2022-09-13T02:01:14;97538.34;;;10.29;93.00
5062;BME280;2351;50.812;12.872;2022-09-13T02:03:52;97532.22;;;10.29;93.07
5062;BME280;2351;50.812;12.872;2022-09-13T02:06:29;97530.53;;;10.28;93.28
5062;BME280;2351;50.812;12.872;2022-09-13T02:09:03;97533.19;;;10.28;93.29
5062;BME280;2351;50.812;12.872;2022-09-13T02:11:40;97537.81;;;10.25;93.46
5062;BME280;2351;50.812;12.872;2022-09-13T02:14:17;97533.75;;;10.21;93.43
5062;BME280;2351;50.812;12.872;2022-09-13T02:16:54;97534.03;;;10.18;93.59
5062;BME280;2351;50.812;12.872;2022-09-13T02:19:34;97536.00;;;10.16;93.53
5062;BME280;2351;50.812;12.872;2022-09-13T02:22:07;97526.53;;;10.14;93.45
5062;BME280;2351;50.812;12.872;2022-09-13T02:24:45;97527.50;;;10.13;93.76
5062;BME280;2351;50.812;12.872;2022-09-13T02:27:20;97525.00;;;10.11;93.83
5062;BME280;2351;50.812;12.872;2022-09-13T02:29:57;97522.50;;;10.09;93.76
5062;BME280;2351;50.812;12.872;2022-09-13T02:32:32;97523.91;;;10.04;93.97
5062;BME280;2351;50.812;12.872;2022-09-13T02:35:09;97527.50;;;10.03;94.00
5062;BME280;2351;50.812;12.872;2022-09-13T02:37:46;97529.31;;;10.02;94.35
5062;BME280;2351;50.812;12.872;2022-09-13T02:40:22;97523.19;;;10.02;94.49
5062;BME280;2351;50.812;12.872;2022-09-13T02:42:58;97511.66;;;10.03;94.42
5062;BME280;2351;50.812;12.872;2022-09-13T02:45:40;97513.31;;;10.04;94.63
5062;BME280;2351;50.812;12.872;2022-09-13T02:48:19;97509.56;;;10.06;94.50
5062;BME280;2351;50.812;12.872;2022-09-13T02:51:01;97495.47;;;10.06;94.66
5062;BME280;2351;50.812;12.872;2022-09-13T02:53:37;97500.66;;;10.07;94.66
5062;BME280;2351;50.812;12.872;2022-09-13T02:56:19;97502.16;;;10.10;94.78
5062;BME280;2351;50.812;12.872;2022-09-13T02:58:56;97497.56;;;10.12;94.99
5062;BME280;2351;50.812;12.872;2022-09-13T03:01:31;97497.28;;;10.15;95.01
5062;BME280;2351;50.812;12.872;2022-09-13T03:04:03;97499.78;;;10.17;95.20
5062;BME280;2351;50.812;12.872;2022-09-13T03:06:36;97491.72;;;10.18;95.33
5062;BME280;2351;50.812;12.872;2022-09-13T03:09:10;97492.56;;;10.19;95.11
5062;BME280;2351;50.812;12.872;2022-09-13T03:11:55;97488.94;;;10.20;95.31
5062;BME280;2351;50.812;12.872;2022-09-13T03:14:40;97483.63;;;10.20;95.64
5062;BME280;2351;50.812;12.872;2022-09-13T03:17:22;97477.25;;;10.22;95.64
5062;BME280;2351;50.812;12.872;2022-09-13T03:20:07;97467.50;;;10.23;95.54
5062;BME280;2351;50.812;12.872;2022-09-13T03:23:08;97460.25;;;10.25;95.80
5062;BME280;2351;50.812;12.872;2022-09-13T03:26:02;97467.22;;;10.26;95.65
5062;BME280;2351;50.812;12.872;2022-09-13T03:28:44;97460.94;;;10.27;95.75
5062;BME280;2351;50.812;12.872;2022-09-13T03:31:30;97466.25;;;10.27;95.94
5062;BME280;2351;50.812;12.872;2022-09-13T03:34:08;97457.44;;;10.27;95.85
5062;BME280;2351;50.812;12.872;2022-09-13T03:36:43;97450.81;;;10.22;95.64
5062;BME280;2351;50.812;12.872;2022-09-13T03:39:23;97450.25;;;10.19;95.87
5062;BME280;2351;50.812;12.872;2022-09-13T03:42:02;97447.59;;;10.19;96.16
5062;BME280;2351;50.812;12.872;2022-09-13T03:44:35;97460.00;;;10.18;96.30
5062;BME280;2351;50.812;12.872;2022-09-13T03:47:09;97452.34;;;10.15;95.82
5062;BME280;2351;50.812;12.872;2022-09-13T03:49:41;97453.47;;;10.13;96.21
5062;BME280;2351;50.812;12.872;2022-09-13T03:52:13;97462.50;;;10.10;95.94
5062;BME280;2351;50.812;12.872;2022-09-13T03:54:46;97460.00;;;10.08;96.04
5062;BME280;2351;50.812;12.872;2022-09-13T03:57:19;97467.25;;;10.06;96.23
5062;BME280;2351;50.812;12.872;2022-09-13T03:59:52;97465.56;;;10.05;96.16
5062;BME280;2351;50.812;12.872;2022-09-13T04:02:25;97460.28;;;10.05;96.11
5062;BME280;2351;50.812;12.872;2022-09-13T04:04:57;97461.09;;;10.06;96.14
5062;BME280;2351;50.812;12.872;2022-09-13T04:07:29;97458.47;;;10.06;96.51
5062;BME280;2351;50.812;12.872;2022-09-13T04:10:02;97457.50;;;10.07;96.50
5062;BME280;2351;50.812;12.872;2022-09-13T04:12:34;97466.13;;;10.09;96.42
5062;BME280;2351;50.812;12.872;2022-09-13T04:15:06;97472.81;;;10.13;96.69
5062;BME280;2351;50.812;12.872;2022-09-13T04:17:39;97466.53;;;10.14;96.61
5062;BME280;2351;50.812;12.872;2022-09-13T04:20:10;97469.72;;;10.18;96.86
5062;BME280;2351;50.812;12.872;2022-09-13T04:22:42;97467.50;;;10.23;96.86
5062;BME280;2351;50.812;12.872;2022-09-13T04:25:15;97474.03;;;10.29;97.03
5062;BME280;2351;50.812;12.872;2022-09-13T04:27:47;97471.50;;;10.37;97.15
5062;BME280;2351;50.812;12.872;2022-09-13T04:30:19;97472.78;;;10.43;97.23
5062;BME280;2351;50.812;12.872;2022-09-13T04:32:51;97466.75;;;10.50;97.38
5062;BME280;2351;50.812;12.872;2022-09-13T04:35:23;97472.19;;;10.59;97.67
5062;BME280;2351;50.812;12.872;2022-09-13T04:37:55;97468.00;;;10.66;97.83
5062;BME280;2351;50.812;12.872;2022-09-13T04:40:28;97467.09;;;10.75;98.22
5062;BME280;2351;50.812;12.872;2022-09-13T04:43:00;97453.13;;;10.83;98.13
5062;BME280;2351;50.812;12.872;2022-09-13T04:45:31;97452.56;;;10.89;98.46
5062;BME280;2351;50.812;12.872;2022-09-13T04:48:04;97462.41;;;10.97;98.50
5062;BME280;2351;50.812;12.872;2022-09-13T04:50:36;97454.72;;;11.04;98.70
5062;BME280;2351;50.812;12.872;2022-09-13T04:53:07;97452.47;;;11.09;98.78
5062;BME280;2351;50.812;12.872;2022-09-13T04:55:40;97441.47;;;11.13;98.91
5062;BME280;2351;50.812;12.872;2022-09-13T04:58:12;97444.47;;;11.19;98.89
5062;BME280;2351;50.812;12.872;2022-09-13T05:00:43;97452.69;;;11.25;99.23
5062;BME280;2351;50.812;12.872;2022-09-13T05:03:15;97452.91;;;11.32;99.37
5062;BME280;2351;50.812;12.872;2022-09-13T05:05:46;97449.00;;;11.36;99.10
5062;BME280;2351;50.812;12.872;2022-09-13T05:08:18;97434.44;;;11.40;99.52
5062;BME280;2351;50.812;12.872;2022-09-13T05:10:51;97446.09;;;11.48;99.54
5062;BME280;2351;50.812;12.872;2022-09-13T05:13:23;97441.72;;;11.56;99.84
5062;BME280;2351;50.812;12.872;2022-09-13T05:15:55;97440.66;;;11.67;100.00
5062;BME280;2351;50.812;12.872;2022-09-13T05:18:27;97445.59;;;11.80;100.00
5062;BME280;2351;50.812;12.872;2022-09-13T05:21:00;97446.34;;;11.90;100.00
5062;BME280;2351;50.812;12.872;2022-09-13T05:23:32;97443.66;;;12.00;100.00
5062;BME280;2351;50.812;12.872;2022-09-13T05:26:06;97440.06;;;12.10;100.00
5062;BME280;2351;50.812;12.872;2022-09-13T05:28:37;97441.94;;;12.17;100.00
5062;BME280;2351;50.812;12.872;2022-09-13T05:31:12;97443.00;;;12.25;100.00
5062;BME280;2351;50.812;12.872;2022-09-13T05:33:47;97443.19;;;12.31;100.00
5062;BME280;2351;50.812;12.872;2022-09-13T05:36:19;97441.72;;;12.37;100.00
5062;BME280;2351;50.812;12.872;2022-09-13T05:38:51;97446.94;;;12.47;100.00
5062;BME280;2351;50.812;12.872;2022-09-13T05:41:24;97453.28;;;12.54;100.00
5062;BME280;2351;50.812;12.872;2022-09-13T05:43:56;97443.72;;;12.61;100.00
5062;BME280;2351;50.812;12.872;2022-09-13T05:46:28;97435.78;;;12.70;100.00
5062;BME280;2351;50.812;12.872;2022-09-13T05:48:59;97433.19;;;12.78;100.00
5062;BME280;2351;50.812;12.872;2022-09-13T05:51:37;97423.59;;;12.85;100.00
5062;BME280;2351;50.812;12.872;2022-09-13T05:54:17;97422.97;;;13.00;100.00
5062;BME280;2351;50.812;12.872;2022-09-13T05:56:50;97421.22;;;13.17;100.00
5062;BME280;2351;50.812;12.872;2022-09-13T05:59:23;97421.75;;;13.37;100.00
5062;BME280;2351;50.812;12.872;2022-09-13T06:01:54;97412.69;;;13.56;100.00
5062;BME280;2351;50.812;12.872;2022-09-13T06:04:26;97422.19;;;13.75;100.00
5062;BME280;2351;50.812;12.872;2022-09-13T06:06:58;97415.88;;;13.93;100.00
5062;BME280;2351;50.812;12.872;2022-09-13T06:09:29;97418.53;;;14.09;100.00
5062;BME280;2351;50.812;12.872;2022-09-13T06:12:02;97414.16;;;14.25;100.00
5062;BME280;2351;50.812;12.872;2022-09-13T06:14:34;97406.53;;;14.30;100.00
5062;BME280;2351;50.812;12.872;2022-09-13T06:17:06;97405.19;;;14.34;100.00
5062;BME280;2351;50.812;12.872;2022-09-13T06:19:37;97412.50;;;14.40;100.00
5062;BME280;2351;50.812;12.872;2022-09-13T06:22:09;97412.16;;;14.43;100.00
5062;BME280;2351;50.812;12.872;2022-09-13T06:24:40;97409.66;;;14.50;100.00
5062;BME280;2351;50.812;12.872;2022-09-13T06:27:13;97408.31;;;14.54;99.56
5062;BME280;2351;50.812;12.872;2022-09-13T06:29:45;97412.97;;;14.52;98.28
5062;BME280;2351;50.812;12.872;2022-09-13T06:32:16;97404.13;;;14.60;98.18
5062;BME280;2351;50.812;12.872;2022-09-13T06:34:48;97395.47;;;14.66;96.79
5062;BME280;2351;50.812;12.872;2022-09-13T06:37:19;97407.09;;;14.73;96.96
5062;BME280;2351;50.812;12.872;2022-09-13T06:39:51;97403.56;;;14.81;96.62
5062;BME280;2351;50.812;12.872;2022-09-13T06:42:24;97399.91;;;14.82;95.83
5062;BME280;2351;50.812;12.872;2022-09-13T06:44:55;97401.88;;;14.88;95.53
5062;BME280;2351;50.812;12.872;2022-09-13T06:47:27;97396.88;;;14.94;95.29
5062;BME280;2351;50.812;12.872;2022-09-13T06:49:58;97404.88;;;14.94;94.61
5062;BME280;2351;50.812;12.872;2022-09-13T06:52:30;97399.00;;;14.98;94.53
5062;BME280;2351;50.812;12.872;2022-09-13T06:55:02;97396.66;;;15.03;94.26
5062;BME280;2351;50.812;12.872;2022-09-13T06:57:35;97403.31;;;15.08;93.75
5062;BME280;2351;50.812;12.872;2022-09-13T07:00:08;97397.63;;;15.11;93.02
5062;BME280;2351;50.812;12.872;2022-09-13T07:02:40;97401.09;;;15.19;93.11
5062;BME280;2351;50.812;12.872;2022-09-13T07:05:11;97400.69;;;15.31;93.13
5062;BME280;2351;50.812;12.872;2022-09-13T07:07:43;97399.44;;;15.42;92.93
5062;BME280;2351;50.812;12.872;2022-09-13T07:10:14;97405.44;;;15.44;91.72
5062;BME280;2351;50.812;12.872;2022-09-13T07:12:47;97397.75;;;15.49;91.22
5062;BME280;2351;50.812;12.872;2022-09-13T07:15:19;97397.56;;;15.50;90.57
5062;BME280;2351;50.812;12.872;2022-09-13T07:17:50;97404.75;;;15.50;89.60
5062;BME280;2351;50.812;12.872;2022-09-13T07:20:22;97399.22;;;15.51;88.70
5062;BME280;2351;50.812;12.872;2022-09-13T07:22:53;97410.38;;;15.55;87.95
5062;BME280;2351;50.812;12.872;2022-09-13T07:25:25;97406.28;;;15.68;87.96
5062;BME280;2351;50.812;12.872;2022-09-13T07:27:57;97400.50;;;15.79;87.42
5062;BME280;2351;50.812;12.872;2022-09-13T07:30:29;97397.75;;;15.95;87.70
5062;BME280;2351;50.812;12.872;2022-09-13T07:33:00;97390.97;;;16.08;87.57
5062;BME280;2351;50.812;12.872;2022-09-13T07:35:32;97401.03;;;16.21;87.23
5062;BME280;2351;50.812;12.872;2022-09-13T07:38:03;97390.38;;;16.36;86.22
5062;BME280;2351;50.812;12.872;2022-09-13T07:40:35;97395.25;;;16.47;85.87
5062;BME280;2351;50.812;12.872;2022-09-13T07:43:08;97391.94;;;16.60;85.57
5062;BME280;2351;50.812;12.872;2022-09-13T07:45:39;97394.44;;;16.62;84.02
5062;BME280;2351;50.812;12.872;2022-09-13T07:48:11;97392.78;;;16.61;83.55
5062;BME280;2351;50.812;12.872;2022-09-13T07:50:42;97396.09;;;16.63;83.02
5062;BME280;2351;50.812;12.872;2022-09-13T07:53:14;97397.13;;;16.62;81.02
5062;BME280;2351;50.812;12.872;2022-09-13T07:55:45;97397.66;;;16.57;80.78
5062;BME280;2351;50.812;12.872;2022-09-13T07:58:18;97396.47;;;16.60;80.74
5062;BME280;2351;50.812;12.872;2022-09-13T08:00:50;97394.81;;;16.59;80.71
5062;BME280;2351;50.812;12.872;2022-09-13T08:03:21;97393.16;;;16.58;80.66
5062;BME280;2351;50.812;12.872;2022-09-13T08:05:53;97399.31;;;16.58;80.69
5062;BME280;2351;50.812;12.872;2022-09-13T08:08:24;97405.88;;;16.55;80.31
5062;BME280;2351;50.812;12.872;2022-09-13T08:10:56;97403.38;;;16.54;80.65
5062;BME280;2351;50.812;12.872;2022-09-13T08:13:30;97406.22;;;16.52;80.35
5062;BME280;2351;50.812;12.872;2022-09-13T08:16:04;97410.28;;;16.48;80.41
5062;BME280;2351;50.812;12.872;2022-09-13T08:18:35;97407.50;;;16.41;80.59
5062;BME280;2351;50.812;12.872;2022-09-13T08:21:07;97404.75;;;16.35;80.66
5062;BME280;2351;50.812;12.872;2022-09-13T08:23:39;97407.31;;;16.28;80.83
5062;BME280;2351;50.812;12.872;2022-09-13T08:26:11;97409.88;;;16.21;81.10
5062;BME280;2351;50.812;12.872;2022-09-13T08:28:44;97416.94;;;16.14;81.32
5062;BME280;2351;50.812;12.872;2022-09-13T08:31:16;97414.63;;;16.11;81.54
5062;BME280;2351;50.812;12.872;2022-09-13T08:33:49;97414.34;;;16.06;81.92
5062;BME280;2351;50.812;12.872;2022-09-13T08:36:21;97419.03;;;16.04;82.11
5062;BME280;2351;50.812;12.872;2022-09-13T08:38:55;97421.03;;;16.02;82.85
5062;BME280;2351;50.812;12.872;2022-09-13T08:42:00;97415.34;;;16.05;83.63
5062;BME280;2351;50.812;12.872;2022-09-13T08:44:38;97412.97;;;16.10;84.37
5062;BME280;2351;50.812;12.872;2022-09-13T08:47:28;97409.03;;;16.21;85.03
5062;BME280;2351;50.812;12.872;2022-09-13T08:50:09;97396.47;;;16.45;85.26
5062;BME280;2351;50.812;12.872;2022-09-13T08:52:50;97398.59;;;16.64;85.55
5062;BME280;2351;50.812;12.872;2022-09-13T08:55:32;97398.94;;;16.76;85.63
5062;BME280;2351;50.812;12.872;2022-09-13T08:58:21;97391.88;;;16.83;85.76
5062;BME280;2351;50.812;12.872;2022-09-13T09:01:03;97388.25;;;16.91;86.10
5062;BME280;2351;50.812;12.872;2022-09-13T09:03:41;97386.34;;;17.00;86.38
5062;BME280;2351;50.812;12.872;2022-09-13T09:06:15;97388.28;;;17.06;86.30
5062;BME280;2351;50.812;12.872;2022-09-13T09:08:49;97381.50;;;17.10;86.22
5062;BME280;2351;50.812;12.872;2022-09-13T09:11:29;97379.09;;;17.15;86.44
5062;BME280;2351;50.812;12.872;2022-09-13T09:14:06;97372.91;;;17.30;86.63
5062;BME280;2351;50.812;12.872;2022-09-13T09:16:47;97365.91;;;17.51;87.07
5062;BME280;2351;50.812;12.872;2022-09-13T09:19:24;97371.13;;;17.81;87.97
5062;BME280;2351;50.812;12.872;2022-09-13T09:22:02;97370.78;;;18.12;88.77
5062;BME280;2351;50.812;12.872;2022-09-13T09:24:36;97365.00;;;18.44;89.06
5062;BME280;2351;50.812;12.872;2022-09-13T09:27:12;97367.69;;;18.79;89.92
5062;BME280;2351;50.812;12.872;2022-09-13T09:29:45;97372.13;;;19.00;88.03
5062;BME280;2351;50.812;12.872;2022-09-13T09:32:31;97369.03;;;18.96;82.58
5062;BME280;2351;50.812;12.872;2022-09-13T09:35:11;97362.47;;;19.06;82.36
5062;BME280;2351;50.812;12.872;2022-09-13T09:38:01;97359.59;;;19.14;81.49
5062;BME280;2351;50.812;12.872;2022-09-13T09:40:36;97356.91;;;19.07;76.99
5062;BME280;2351;50.812;12.872;2022-09-13T09:43:15;97361.66;;;19.12;75.75
5062;BME280;2351;50.812;12.872;2022-09-13T09:45:51;97362.97;;;19.30;76.24
5062;BME280;2351;50.812;12.872;2022-09-13T09:48:30;97355.97;;;19.42;75.28
5062;BME280;2351;50.812;12.872;2022-09-13T09:51:07;97359.69;;;19.48;74.03
5062;BME280;2351;50.812;12.872;2022-09-13T09:53:43;97349.38;;;19.45;73.09
5062;BME280;2351;50.812;12.872;2022-09-13T09:56:23;97345.25;;;19.49;73.10
5062;BME280;2351;50.812;12.872;2022-09-13T09:58:55;97347.13;;;19.68;73.42
5062;BME280;2351;50.812;12.872;2022-09-13T10:01:28;97336.84;;;19.92;73.25
5062;BME280;2351;50.812;12.872;2022-09-13T10:04:05;97338.91;;;20.10;71.36
5062;BME280;2351;50.812;12.872;2022-09-13T10:06:38;97329.59;;;20.13;69.42
5062;BME280;2351;50.812;12.872;2022-09-13T10:09:15;97335.78;;;20.27;68.14
5062;BME280;2351;50.812;12.872;2022-09-13T10:11:50;97341.34;;;20.32;67.50
5062;BME280;2351;50.812;12.872;2022-09-13T10:14:34;97339.09;;;20.22;65.99
5062;BME280;2351;50.812;12.872;2022-09-13T10:17:16;97341.19;;;20.13;66.08
5062;BME280;2351;50.812;12.872;2022-09-13T10:19:54;97339.50;;;19.99;65.28
5062;BME280;2351;50.812;12.872;2022-09-13T10:22:29;97344.44;;;19.75;64.57
5062;BME280;2351;50.812;12.872;2022-09-13T10:25:13;97341.53;;;19.56;64.46
5062;BME280;2351;50.812;12.872;2022-09-13T10:27:48;97346.09;;;19.49;65.13
5062;BME280;2351;50.812;12.872;2022-09-13T10:30:31;97333.69;;;19.48;65.21
5062;BME280;2351;50.812;12.872;2022-09-13T10:33:06;97332.69;;;19.56;65.60
5062;BME280;2351;50.812;12.872;2022-09-13T10:35:48;97331.03;;;19.55;65.17
5062;BME280;2351;50.812;12.872;2022-09-13T10:38:26;97323.59;;;19.64;65.46
5062;BME280;2351;50.812;12.872;2022-09-13T10:40:59;97325.47;;;19.70;65.29
5062;BME280;2351;50.812;12.872;2022-09-13T10:43:33;97327.75;;;19.73;64.64
5062;BME280;2351;50.812;12.872;2022-09-13T10:46:09;97327.53;;;19.68;64.33
5062;BME280;2351;50.812;12.872;2022-09-13T10:48:45;97328.78;;;19.72;64.65
5062;BME280;2351;50.812;12.872;2022-09-13T10:51:33;97334.94;;;19.79;64.69
5062;BME280;2351;50.812;12.872;2022-09-13T10:54:17;97318.84;;;19.79;64.53
5062;BME280;2351;50.812;12.872;2022-09-13T10:56:50;97323.41;;;19.72;64.39
5062;BME280;2351;50.812;12.872;2022-09-13T10:59:24;97315.53;;;19.64;64.43
5062;BME280;2351;50.812;12.872;2022-09-13T11:02:22;97317.59;;;19.62;64.70
5062;BME280;2351;50.812;12.872;2022-09-13T11:05:08;97319.44;;;19.54;64.57
5062;BME280;2351;50.812;12.872;2022-09-13T11:08:17;97310.19;;;19.50;64.61
5062;BME280;2351;50.812;12.872;2022-09-13T11:10:59;97301.28;;;19.50;64.92
5062;BME280;2351;50.812;12.872;2022-09-13T11:13:45;97307.91;;;19.54;65.07
5062;BME280;2351;50.812;12.872;2022-09-13T11:16:37;97303.78;;;19.65;65.21
5062;BME280;2351;50.812;12.872;2022-09-13T11:19:24;97304.19;;;19.75;65.25
5062;BME280;2351;50.812;12.872;2022-09-13T11:22:25;97302.94;;;19.84;65.24
5062;BME280;2351;50.812;12.872;2022-09-13T11:25:12;97301.53;;;19.89;64.88
5062;BME280;2351;50.812;12.872;2022-09-13T11:27:53;97296.97;;;20.02;64.83
5062;BME280;2351;50.812;12.872;2022-09-13T11:30:27;97307.47;;;20.31;64.38
5062;BME280;2351;50.812;12.872;2022-09-13T11:33:12;97299.94;;;20.53;62.22
5062;BME280;2351;50.812;12.872;2022-09-13T11:36:08;97295.34;;;20.74;62.22
5062;BME280;2351;50.812;12.872;2022-09-13T11:38:50;97296.09;;;20.95;61.78
5062;BME280;2351;50.812;12.872;2022-09-13T11:41:31;97300.03;;;20.92;58.58
5062;BME280;2351;50.812;12.872;2022-09-13T11:44:26;97294.91;;;20.84;57.41
5062;BME280;2351;50.812;12.872;2022-09-13T11:47:07;97300.03;;;20.92;58.18
5062;BME280;2351;50.812;12.872;2022-09-13T11:50:01;97293.19;;;20.96;58.21
5062;BME280;2351;50.812;12.872;2022-09-13T11:52:41;97290.94;;;20.93;57.67
5062;BME280;2351;50.812;12.872;2022-09-13T11:55:25;97300.03;;;20.92;58.13
5062;BME280;2351;50.812;12.872;2022-09-13T11:58:05;97296.13;;;20.88;57.91
5062;BME280;2351;50.812;12.872;2022-09-13T12:00:42;97288.09;;;20.81;57.85
5062;BME280;2351;50.812;12.872;2022-09-13T12:03:22;97298.84;;;20.74;57.97
5062;BME280;2351;50.812;12.872;2022-09-13T12:06:00;97291.63;;;20.68;58.32
5062;BME280;2351;50.812;12.872;2022-09-13T12:08:35;97280.72;;;20.63;58.30
5062;BME280;2351;50.812;12.872;2022-09-13T12:11:10;97277.78;;;20.65;58.83
5062;BME280;2351;50.812;12.872;2022-09-13T12:13:47;97279.84;;;20.69;58.72
5062;BME280;2351;50.812;12.872;2022-09-13T12:16:24;97276.31;;;20.75;59.07
5062;BME280;2351;50.812;12.872;2022-09-13T12:18:58;97275.25;;;20.83;59.20
5062;BME280;2351;50.812;12.872;2022-09-13T12:21:34;97276.66;;;20.92;59.20
5062;BME280;2351;50.812;12.872;2022-09-13T12:24:16;97270.63;;;20.97;58.94
5062;BME280;2351;50.812;12.872;2022-09-13T12:26:53;97274.38;;;20.96;58.63
5062;BME280;2351;50.812;12.872;2022-09-13T12:29:35;97264.84;;;21.00;58.87
5062;BME280;2351;50.812;12.872;2022-09-13T12:32:09;97258.78;;;21.05;58.79
5062;BME280;2351;50.812;12.872;2022-09-13T12:34:43;97257.38;;;21.02;58.34
5062;BME280;2351;50.812;12.872;2022-09-13T12:37:44;97267.47;;;21.07;58.37
5062;BME280;2351;50.812;12.872;2022-09-13T12:40:43;97255.44;;;21.16;58.50
5062;BME280;2351;50.812;12.872;2022-09-13T12:43:41;97256.19;;;21.24;58.47
5062;BME280;2351;50.812;12.872;2022-09-13T12:49:29;97254.34;;;21.24;57.98
5062;BME280;2351;50.812;12.872;2022-09-13T12:52:19;97247.31;;;21.23;58.55
5062;BME280;2351;50.812;12.872;2022-09-13T12:55:18;97240.66;;;21.26;58.64
5062;BME280;2351;50.812;12.872;2022-09-13T12:58:06;97245.84;;;21.20;58.30
5062;BME280;2351;50.812;12.872;2022-09-13T13:00:57;97242.59;;;21.12;58.14
5062;BME280;2351;50.812;12.872;2022-09-13T13:03:35;97254.88;;;21.01;58.05
5062;BME280;2351;50.812;12.872;2022-09-13T13:06:24;97253.03;;;21.01;58.82
5062;BME280;2351;50.812;12.872;2022-09-13T13:08:58;97245.72;;;21.09;59.25
5062;BME280;2351;50.812;12.872;2022-09-13T13:11:41;97246.91;;;21.19;58.97
5062;BME280;2351;50.812;12.872;2022-09-13T13:14:48;97243.41;;;21.19;58.83
5062;BME280;2351;50.812;12.872;2022-09-13T13:17:43;97241.13;;;21.16;58.48
5062;BME280;2351;50.812;12.872;2022-09-13T13:23:26;97231.66;;;21.39;59.24
5062;BME280;2351;50.812;12.872;2022-09-13T13:26:03;97236.34;;;21.50;59.10
5062;BME280;2351;50.812;12.872;2022-09-13T13:31:51;97231.75;;;21.83;58.30
5062;BME280;2351;50.812;12.872;2022-09-13T13:34:42;97232.06;;;22.11;58.18
5062;BME280;2351;50.812;12.872;2022-09-13T13:37:27;97220.69;;;22.28;56.84
5062;BME280;2351;50.812;12.872;2022-09-13T13:40:24;97215.34;;;22.40;56.87
5062;BME280;2351;50.812;12.872;2022-09-13T13:43:31;97221.22;;;22.37;55.67
5062;BME280;2351;50.812;12.872;2022-09-13T13:46:25;97217.31;;;22.33;56.06
5062;BME280;2351;50.812;12.872;2022-09-13T13:55:35;97207.81;;;22.11;54.51
5062;BME280;2351;50.812;12.872;2022-09-13T13:58:36;97211.59;;;21.85;53.99
5062;BME280;2351;50.812;12.872;2022-09-13T14:01:17;97214.03;;;21.68;54.34
5062;BME280;2351;50.812;12.872;2022-09-13T14:04:15;97213.06;;;21.62;54.53
5062;BME280;2351;50.812;12.872;2022-09-13T14:07:03;97213.47;;;21.59;54.54
5062;BME280;2351;50.812;12.872;2022-09-13T14:09:44;97213.91;;;21.56;54.43
5062;BME280;2351;50.812;12.872;2022-09-13T14:12:28;97210.47;;;21.49;54.64
5062;BME280;2351;50.812;12.872;2022-09-13T14:15:09;97211.56;;;21.41;54.69
5062;BME280;2351;50.812;12.872;2022-09-13T14:18:01;97200.41;;;21.37;54.50
5062;BME280;2351;50.812;12.872;2022-09-13T14:20:56;97195.03;;;21.37;55.07
5062;BME280;2351;50.812;12.872;2022-09-13T14:23:27;97195.88;;;21.38;55.20
5062;BME280;2351;50.812;12.872;2022-09-13T14:25:59;97195.59;;;21.21;54.71